Time;durP1;ratioP1;P1;durP2;ratioP2;P2;SDS_P1;SDS_P2;PMS_P1;PMS_P2;Temp;Humidity;BMP_temperature;BMP_pressure;BME280_temperature;BME280_humidity;BME280_pressure;Samples;Min_cycle;Max_cycle;Signal;HPM_P1;HPM_P2
2022/07/17 00:00:36;;;;;;;7.72;3.75;;;;;;;20.20;71.51;101105.55;1753985;82;21117;-60
2022/07/17 00:03:05;;;;;;;7.25;4.15;;;;;;;20.28;71.33;101111.16;1753765;81;21077;-59
2022/07/17 00:05:34;;;;;;;9.45;4.65;;;;;;;20.28;71.23;101107.16;1753910;82;21175;-59
2022/07/17 00:08:03;;;;;;;11.45;4.30;;;;;;;20.29;71.26;101112.88;1753902;82;21507;-59
2022/07/17 00:10:31;;;;;;;10.03;3.60;;;;;;;20.28;71.15;101119.18;1753910;81;21151;-59
2022/07/17 00:13:00;;;;;;;11.65;5.35;;;;;;;20.23;71.02;101118.66;1754007;82;21148;-59
2022/07/17 00:15:29;;;;;;;6.85;4.40;;;;;;;20.19;71.02;101115.36;1748101;81;21175;-60
2022/07/17 00:17:57;;;;;;;13.35;4.70;;;;;;;20.15;71.10;101122.40;1747809;82;21199;-59
2022/07/17 00:20:28;;;;;;;10.30;4.35;;;;;;;20.11;71.63;101120.92;1747757;82;21516;-59
2022/07/17 00:22:58;;;;;;;8.00;4.58;;;;;;;20.05;72.35;101132.42;1747743;82;21128;-59
2022/07/17 00:25:26;;;;;;;8.98;4.40;;;;;;;20.00;72.59;101126.55;1747793;82;21167;-59
2022/07/17 00:27:55;;;;;;;8.60;4.72;;;;;;;19.97;72.87;101131.27;1747705;82;21078;-59
2022/07/17 00:30:24;;;;;;;7.50;4.35;;;;;;;19.94;73.02;101128.80;1747842;82;21081;-59
2022/07/17 00:32:52;;;;;;;9.58;5.12;;;;;;;19.82;73.60;101129.22;1747892;82;21066;-59
2022/07/17 00:35:21;;;;;;;11.80;4.53;;;;;;;19.69;74.05;101133.22;1747790;82;21062;-59
2022/07/17 00:37:51;;;;;;;6.10;4.15;;;;;;;19.60;74.36;101129.38;1747794;82;21484;-59
2022/07/17 00:40:23;;;;;;;6.72;4.65;;;;;;;19.55;74.44;101132.00;1747770;82;21586;-59
2022/07/17 00:42:52;;;;;;;11.60;6.62;;;;;;;19.50;74.71;101129.67;1747713;82;21582;-59
2022/07/17 00:45:24;;;;;;;17.00;12.35;;;;;;;19.51;74.93;101133.19;1747751;82;21077;-59
2022/07/17 00:48:03;;;;;;;16.10;8.85;;;;;;;19.50;75.04;101128.83;1747618;82;21077;-59
2022/07/17 00:50:35;;;;;;;10.43;6.45;;;;;;;19.48;74.80;101134.27;1747746;82;21587;-59
2022/07/17 00:53:04;;;;;;;9.80;5.10;;;;;;;19.46;74.60;101134.86;1747791;82;21527;-59
2022/07/17 00:55:33;;;;;;;15.88;6.00;;;;;;;19.43;74.37;101131.06;1747974;82;21121;-59
2022/07/17 00:58:04;;;;;;;11.35;6.72;;;;;;;19.41;74.26;101126.31;1747919;82;21070;-59
2022/07/17 01:00:34;;;;;;;9.55;6.30;;;;;;;19.38;74.33;101130.52;1747798;82;21156;-60
2022/07/17 01:03:03;;;;;;;6.72;4.53;;;;;;;19.37;74.58;101135.51;1747888;82;21081;-59
2022/07/17 01:05:32;;;;;;;10.30;5.55;;;;;;;19.34;74.86;101135.71;1747747;81;21069;-59
2022/07/17 01:08:00;;;;;;;10.50;5.30;;;;;;;19.33;75.20;101137.99;1747868;82;21045;-59
2022/07/17 01:10:29;;;;;;;7.92;4.80;;;;;;;19.32;75.00;101142.48;1747958;82;21037;-60
2022/07/17 01:12:58;;;;;;;11.55;4.58;;;;;;;19.29;74.88;101150.70;1747869;82;21536;-60
2022/07/17 01:15:27;;;;;;;9.45;5.40;;;;;;;19.25;74.71;101147.39;1747970;82;21175;-60
2022/07/17 01:17:57;;;;;;;8.43;5.20;;;;;;;19.22;74.65;101143.61;1747829;82;21143;-60
2022/07/17 01:20:26;;;;;;;11.78;5.22;;;;;;;19.16;75.09;101144.02;1747877;82;21488;-60
2022/07/17 01:22:55;;;;;;;7.30;4.35;;;;;;;19.13;75.62;101149.59;1747847;82;21152;-59
2022/07/17 01:25:24;;;;;;;10.20;5.03;;;;;;;19.09;75.73;101142.27;1747935;82;21069;-59
2022/07/17 01:27:53;;;;;;;7.17;4.78;;;;;;;19.03;75.76;101136.48;1747853;82;21093;-59
2022/07/17 01:30:22;;;;;;;12.60;4.55;;;;;;;18.93;76.15;101131.42;1747830;82;21590;-59
2022/07/17 01:32:50;;;;;;;10.28;6.95;;;;;;;18.91;76.03;101132.84;1747802;82;21148;-59
2022/07/17 01:35:19;;;;;;;7.92;4.70;;;;;;;18.90;76.00;101133.80;1747954;82;21144;-59
2022/07/17 01:37:48;;;;;;;6.25;4.08;;;;;;;18.90;76.28;101140.01;1747851;82;21246;-59
2022/07/17 01:40:18;;;;;;;6.37;3.87;;;;;;;18.92;76.05;101142.55;1748001;82;21488;-59
2022/07/17 01:42:50;;;;;;;10.88;4.67;;;;;;;18.94;75.80;101149.12;1747932;82;21050;-60
2022/07/17 01:45:19;;;;;;;11.12;4.45;;;;;;;18.93;75.74;101147.42;1747917;82;21133;-60
2022/07/17 01:47:49;;;;;;;7.67;4.25;;;;;;;18.91;75.92;101155.53;1747943;82;21124;-60
2022/07/17 01:50:17;;;;;;;9.40;4.50;;;;;;;18.89;75.91;101142.28;1747879;82;21520;-59
2022/07/17 01:52:46;;;;;;;10.30;4.80;;;;;;;18.89;75.92;101142.28;1747972;82;21045;-59
2022/07/17 01:55:16;;;;;;;9.15;4.65;;;;;;;18.90;76.23;101143.13;1747979;82;21052;-60
2022/07/17 01:57:45;;;;;;;12.88;5.12;;;;;;;18.88;76.14;101140.56;1747758;82;21085;-60
2022/07/17 02:00:17;;;;;;;9.48;4.85;;;;;;;18.93;76.16;101142.09;1747828;82;21115;-59
2022/07/17 02:02:46;;;;;;;9.48;4.40;;;;;;;18.92;76.12;101142.55;1747794;82;21082;-60
2022/07/17 02:05:15;;;;;;;10.35;5.00;;;;;;;18.97;76.10;101150.25;1747912;82;21512;-60
2022/07/17 02:07:44;;;;;;;14.53;5.30;;;;;;;18.99;76.19;101145.66;1747845;82;21073;-60
2022/07/17 02:10:16;;;;;;;13.35;4.60;;;;;;;19.01;76.13;101141.08;1747763;82;21092;-60
2022/07/17 02:12:45;;;;;;;8.90;4.57;;;;;;;18.99;75.94;101136.33;1748086;82;21508;-60
2022/07/17 02:15:14;;;;;;;8.30;4.67;;;;;;;18.98;75.82;101140.81;1749131;81;21183;-59
2022/07/17 02:17:43;;;;;;;12.55;4.55;;;;;;;19.00;75.83;101138.05;1753921;81;21551;-60
2022/07/17 02:20:13;;;;;;;7.90;4.47;;;;;;;19.06;75.78;101138.95;1753968;82;21077;-60
2022/07/17 02:22:42;;;;;;;7.30;4.30;;;;;;;19.03;75.74;101137.36;1753798;82;21542;-60
2022/07/17 02:25:11;;;;;;;11.05;4.50;;;;;;;19.02;75.75;101134.30;1753915;82;21144;-60
2022/07/17 02:27:41;;;;;;;13.22;4.17;;;;;;;19.03;75.84;101134.69;1754041;82;21097;-60
2022/07/17 02:30:13;;;;;;;9.15;4.25;;;;;;;19.08;75.77;101145.03;1753966;82;21508;-60
2022/07/17 02:32:43;;;;;;;8.88;4.62;;;;;;;19.08;75.91;101140.55;1753938;82;21116;-59
2022/07/17 02:35:12;;;;;;;6.47;4.05;;;;;;;19.13;76.05;101144.25;1753850;82;21077;-60
2022/07/17 02:37:45;;;;;;;10.23;3.80;;;;;;;19.10;75.75;101136.44;1754046;82;21081;-60
2022/07/17 02:40:14;;;;;;;9.03;4.25;;;;;;;19.08;75.47;101133.03;1754168;82;21091;-60
2022/07/17 02:42:43;;;;;;;10.08;4.35;;;;;;;19.03;75.30;101132.48;1753890;82;21067;-60
2022/07/17 02:45:12;;;;;;;8.48;3.90;;;;;;;19.07;75.35;101133.97;1753932;82;21053;-61
2022/07/17 02:47:41;;;;;;;6.90;4.15;;;;;;;19.08;75.47;101135.70;1753813;82;21105;-60
2022/07/17 02:50:12;;;;;;;12.07;4.67;;;;;;;19.15;75.75;101136.98;1754042;82;21132;-59
2022/07/17 02:52:40;;;;;;;6.22;3.90;;;;;;;19.26;75.69;101134.91;1754021;82;21081;-59
2022/07/17 02:55:10;;;;;;;4.42;3.37;;;;;;;19.29;75.39;101138.23;1753954;82;21077;-59
2022/07/17 02:57:39;;;;;;;8.43;4.33;;;;;;;19.24;75.28;101132.84;1753928;82;21511;-59
2022/07/17 03:00:11;;;;;;;9.63;4.17;;;;;;;19.20;75.17;101124.19;1753897;82;21120;-59
2022/07/17 03:02:40;;;;;;;9.10;3.67;;;;;;;19.20;75.03;101123.30;1753895;82;21081;-59
2022/07/17 03:05:10;;;;;;;9.48;4.33;;;;;;;19.26;75.07;101122.91;1753923;82;21669;-59
2022/07/17 03:07:39;;;;;;;9.10;3.92;;;;;;;19.29;74.83;101122.21;1753975;82;21558;-59
2022/07/17 03:10:08;;;;;;;11.22;4.10;;;;;;;19.33;74.67;101125.98;1753945;82;21151;-59
2022/07/17 03:12:37;;;;;;;9.93;3.40;;;;;;;19.33;74.73;101127.31;1753876;82;21069;-59
2022/07/17 03:15:06;;;;;;;6.40;3.50;;;;;;;19.43;74.87;101127.05;1753943;82;21184;-59
2022/07/17 03:17:35;;;;;;;12.13;4.12;;;;;;;19.55;75.07;101124.87;1748646;81;21175;-59
2022/07/17 03:20:05;;;;;;;11.03;5.12;;;;;;;19.67;74.98;101123.97;1747824;81;21152;-58
2022/07/17 03:22:33;;;;;;;7.05;4.05;;;;;;;19.73;74.61;101125.88;1747865;82;21132;-59
2022/07/17 03:25:02;;;;;;;9.83;3.80;;;;;;;19.86;74.48;101126.69;1747849;82;21082;-59
2022/07/17 03:27:31;;;;;;;6.53;4.40;;;;;;;20.08;74.81;101125.99;1747762;82;21870;-58
2022/07/17 03:30:00;;;;;;;11.33;5.47;;;;;;;20.30;75.00;101123.93;1747908;82;21050;-58
2022/07/17 03:32:28;;;;;;;8.80;3.35;;;;;;;20.50;74.96;101129.63;1747798;82;21116;-58
2022/07/17 03:34:57;;;;;;;5.12;3.87;;;;;;;20.71;74.91;101125.38;1747796;82;21085;-59
2022/07/17 03:37:27;;;;;;;8.70;3.30;;;;;;;20.92;74.90;101124.71;1747831;82;21548;-58
2022/07/17 03:39:56;;;;;;;8.48;4.55;;;;;;;21.14;74.72;101127.44;1747701;82;21081;-59
2022/07/17 03:42:24;;;;;;;7.85;4.10;;;;;;;21.33;74.38;101121.98;1747784;82;21571;-58
2022/07/17 03:44:53;;;;;;;8.55;3.60;;;;;;;21.44;73.63;101115.78;1747755;82;21062;-58
2022/07/17 03:47:21;;;;;;;7.03;3.37;;;;;;;21.58;73.00;101130.31;1747765;82;21567;-59
2022/07/17 03:49:50;;;;;;;5.10;3.17;;;;;;;21.72;72.72;101130.54;1747906;82;21066;-59
2022/07/17 03:52:18;;;;;;;7.53;3.37;;;;;;;21.83;72.04;101132.36;1747693;82;21109;-59
2022/07/17 03:54:47;;;;;;;5.22;3.33;;;;;;;21.96;71.52;101135.25;1747939;82;21066;-59
2022/07/17 03:57:16;;;;;;;7.83;3.40;;;;;;;22.14;71.33;101138.77;1747817;82;21070;-59
2022/07/17 03:59:44;;;;;;;5.47;3.17;;;;;;;22.31;70.88;101146.30;1747800;82;21563;-59
2022/07/17 04:02:13;;;;;;;7.87;3.30;;;;;;;22.44;70.31;101139.94;1747815;82;21081;-59
2022/07/17 04:04:41;;;;;;;7.95;3.60;;;;;;;22.53;69.66;101138.67;1747792;82;21065;-60
2022/07/17 04:07:26;;;;;;;4.67;3.20;;;;;;;22.60;68.80;101143.05;1747758;82;21176;-60
2022/07/17 04:09:41;;;;;;;7.08;3.72;;;;;;;22.70;68.14;101139.97;1744450;82;21097;-60
2022/07/17 04:12:10;;;;;;;6.72;3.42;;;;;;;22.85;67.80;101141.84;1747816;82;21089;-60
2022/07/17 04:14:38;;;;;;;5.08;3.40;;;;;;;23.03;67.51;101148.80;1747824;82;21108;-60
2022/07/17 04:17:07;;;;;;;8.95;3.83;;;;;;;23.24;66.89;101139.91;1749834;81;21104;-59
2022/07/17 04:19:35;;;;;;;7.65;3.42;;;;;;;23.55;66.67;101137.25;1753817;82;21586;-60
2022/07/17 04:22:04;;;;;;;8.73;3.60;;;;;;;23.85;66.32;101142.65;1753921;82;21159;-60
2022/07/17 04:24:32;;;;;;;8.33;3.35;;;;;;;24.08;65.43;101137.04;1753912;82;21159;-60
2022/07/17 04:27:01;;;;;;;9.58;3.92;;;;;;;24.33;64.70;101144.22;1754006;82;21144;-59
2022/07/17 04:29:29;;;;;;;7.80;3.45;;;;;;;24.64;63.96;101133.73;1753882;82;21078;-60
2022/07/17 04:31:58;;;;;;;10.20;3.40;;;;;;;24.99;63.57;101129.59;1753816;82;21492;-60
2022/07/17 04:34:27;;;;;;;6.28;3.52;;;;;;;25.31;62.92;101132.45;1754119;82;21085;-59
2022/07/17 04:36:56;;;;;;;9.58;3.50;;;;;;;25.70;62.55;101139.04;1754167;82;21606;-60
2022/07/17 04:39:25;;;;;;;15.08;3.08;;;;;;;26.06;62.03;101135.13;1754169;82;21097;-60
2022/07/17 04:41:53;;;;;;;8.80;3.75;;;;;;;26.43;61.50;101138.70;1754166;82;21592;-60
2022/07/17 04:44:22;;;;;;;7.42;4.12;;;;;;;26.61;60.13;101127.93;1754109;82;21102;-60
2022/07/17 04:46:50;;;;;;;9.65;3.58;;;;;;;26.85;59.77;101131.34;1754159;82;21180;-59
2022/07/17 04:49:19;;;;;;;6.35;3.25;;;;;;;27.05;58.96;101130.64;1754208;82;21141;-59
2022/07/17 04:51:47;;;;;;;10.20;4.47;;;;;;;27.12;57.74;101129.01;1754148;82;21106;-60
2022/07/17 04:54:16;;;;;;;8.93;3.17;;;;;;;27.25;57.56;101124.02;1754202;82;21599;-60
2022/07/17 04:56:44;;;;;;;9.45;3.65;;;;;;;27.43;56.75;101124.50;1754207;82;21120;-61
2022/07/17 04:59:13;;;;;;;7.80;3.52;;;;;;;27.45;55.89;101129.23;1754225;82;21089;-60
2022/07/17 05:01:42;;;;;;;6.28;3.02;;;;;;;27.43;54.82;101123.15;1754166;82;21558;-59
2022/07/17 05:04:10;;;;;;;9.18;3.77;;;;;;;27.45;54.58;101131.95;1754148;82;21180;-59
2022/07/17 05:06:39;;;;;;;7.80;3.30;;;;;;;27.62;54.84;101126.94;1754238;82;21176;-59
2022/07/17 05:09:09;;;;;;;5.83;3.45;;;;;;;27.86;55.08;101128.06;1754127;82;21098;-59
2022/07/17 05:11:37;;;;;;;5.45;3.33;;;;;;;28.10;54.60;101128.16;1754167;82;21150;-59
2022/07/17 05:14:06;;;;;;;7.03;4.05;;;;;;;28.25;54.25;101132.41;1754267;82;21200;-60
2022/07/17 05:16:35;;;;;;;8.70;3.47;;;;;;;28.39;53.85;101125.52;1754143;82;21101;-59
2022/07/17 05:19:03;;;;;;;13.08;4.95;;;;;;;28.57;53.43;101129.95;1754181;81;21121;-59
2022/07/17 05:21:32;;;;;;;8.28;4.20;;;;;;;28.85;53.16;101127.77;1754113;82;21102;-59
2022/07/17 05:24:01;;;;;;;10.95;4.15;;;;;;;29.11;52.43;101132.98;1754139;82;21572;-59
2022/07/17 05:26:29;;;;;;;9.43;4.33;;;;;;;29.25;52.26;101124.66;1754104;82;21141;-60
2022/07/17 05:28:58;;;;;;;12.53;4.10;;;;;;;29.38;51.83;101122.77;1754204;82;21101;-59
2022/07/17 05:31:27;;;;;;;20.60;3.98;;;;;;;29.68;51.66;101121.14;1754099;82;21081;-60
2022/07/17 05:33:55;;;;;;;6.90;3.00;;;;;;;29.94;50.95;101120.88;1754215;82;21479;-59
2022/07/17 05:36:24;;;;;;;8.33;3.85;;;;;;;30.14;50.33;101125.87;1754080;82;21203;-61
2022/07/17 05:38:53;;;;;;;8.03;3.35;;;;;;;30.25;49.71;101128.17;1754096;82;21181;-59
2022/07/17 05:41:21;;;;;;;6.75;3.25;;;;;;;30.54;49.70;101129.33;1754222;82;21097;-59
2022/07/17 05:43:50;;;;;;;7.08;3.50;;;;;;;30.85;49.17;101129.77;1754080;82;21212;-59
2022/07/17 05:46:18;;;;;;;7.15;3.45;;;;;;;31.14;48.85;101132.56;1754226;82;21155;-59
2022/07/17 05:48:47;;;;;;;9.25;2.98;;;;;;;31.30;48.24;101122.03;1754056;81;21148;-59
2022/07/17 05:51:15;;;;;;;5.75;3.25;;;;;;;31.51;47.61;101130.82;1753784;82;21055;-59
2022/07/17 05:53:44;;;;;;;9.68;3.50;;;;;;;31.63;46.95;101121.68;1753884;82;21499;-59
2022/07/17 05:56:13;;;;;;;10.38;3.95;;;;;;;31.74;46.54;101114.87;1753935;82;21069;-59
2022/07/17 05:58:41;;;;;;;5.90;3.27;;;;;;;31.99;46.26;101111.84;1754094;82;21155;-60
2022/07/17 06:01:10;;;;;;;9.55;2.72;;;;;;;32.21;45.47;101108.13;1753930;82;21124;-60
2022/07/17 06:03:39;;;;;;;6.70;3.05;;;;;;;32.38;45.06;101107.87;1754028;82;21118;-60
2022/07/17 06:06:08;;;;;;;7.40;3.10;;;;;;;32.39;44.38;101105.45;1754003;82;21106;-60
2022/07/17 06:08:36;;;;;;;8.25;2.62;;;;;;;32.73;44.47;101094.37;1753884;82;21065;-59
2022/07/17 06:11:05;;;;;;;6.70;2.83;;;;;;;32.73;44.47;101094.37;1754007;82;21077;-59
2022/07/17 06:13:34;;;;;;;5.75;3.35;;;;;;;33.12;44.12;101096.56;1753998;82;21094;-59
2022/07/17 06:16:03;;;;;;;4.05;3.02;;;;;;;33.16;42.94;101095.64;1753871;82;21073;-60
2022/07/17 06:18:31;;;;;;;13.62;3.05;;;;;;;33.11;42.69;101099.45;1752258;81;21642;-60
2022/07/17 06:21:00;;;;;;;10.10;2.87;;;;;;;33.22;41.31;101093.50;1747854;82;21120;-59
2022/07/17 06:23:30;;;;;;;7.15;2.60;;;;;;;33.22;41.31;101093.50;1747776;82;21069;-59
2022/07/17 06:25:59;;;;;;;9.53;2.85;;;;;;;33.36;41.77;101097.13;1747824;82;21073;-59
2022/07/17 06:28:27;;;;;;;7.15;2.67;;;;;;;33.75;41.62;101101.11;1747859;82;21062;-59
2022/07/17 06:30:56;;;;;;;26.07;14.60;;;;;;;34.17;41.08;101099.16;1747900;82;21065;-59
2022/07/17 06:33:25;;;;;;;12.18;5.10;;;;;;;34.41;41.10;101094.98;1747809;82;21495;-59
2022/07/17 06:35:53;;;;;;;9.30;2.98;;;;;;;34.72;40.64;101093.55;1747824;82;21042;-59
2022/07/17 06:38:23;;;;;;;8.50;2.85;;;;;;;34.94;39.95;101090.89;1747932;81;21042;-59
2022/07/17 06:40:51;;;;;;;11.95;2.92;;;;;;;34.90;39.62;101089.64;1747804;82;21046;-58
2022/07/17 06:43:20;;;;;;;8.85;3.67;;;;;;;34.88;39.25;101099.09;1747826;82;21233;-59
2022/07/17 06:45:51;;;;;;;10.28;2.90;;;;;;;34.99;39.11;101091.10;1747816;82;21069;-59
2022/07/17 06:48:19;;;;;;;6.83;3.62;;;;;;;35.20;38.83;101090.56;1747466;82;21151;-59
2022/07/17 06:50:48;;;;;;;8.78;2.60;;;;;;;35.08;37.76;101088.13;1747813;82;21128;-59
2022/07/17 06:53:17;;;;;;;6.55;2.47;;;;;;;34.90;37.22;101089.64;1747834;82;21140;-59
2022/07/17 06:55:46;;;;;;;7.67;3.05;;;;;;;34.90;36.91;101091.02;1747704;82;21125;-60
2022/07/17 06:58:14;;;;;;;9.15;3.52;;;;;;;34.96;36.56;101083.31;1747837;82;21073;-59
2022/07/17 07:00:43;;;;;;;8.13;2.58;;;;;;;35.09;36.53;101084.34;1747758;82;21135;-60
2022/07/17 07:03:12;;;;;;;8.35;2.90;;;;;;;35.32;36.43;101092.95;1747789;82;21053;-60
2022/07/17 07:05:40;;;;;;;10.13;3.00;;;;;;;35.31;36.05;101091.26;1747850;82;21128;-60
2022/07/17 07:08:09;;;;;;;7.85;3.27;;;;;;;35.30;36.04;101095.07;1747893;82;21062;-60
2022/07/17 07:10:38;;;;;;;8.20;3.17;;;;;;;35.46;35.88;101089.62;1747873;82;21155;-59
2022/07/17 07:13:07;;;;;;;6.37;2.30;;;;;;;35.79;35.80;101086.47;1747757;82;21155;-59
2022/07/17 07:15:36;;;;;;;8.03;3.05;;;;;;;36.11;35.54;101084.04;1747860;82;21065;-60
2022/07/17 07:18:04;;;;;;;2.95;1.80;;;;;;;36.18;35.25;101083.17;1747776;82;21144;-60
2022/07/17 07:20:33;;;;;;;8.83;3.65;;;;;;;36.17;34.70;101082.34;1747895;81;21113;-60
2022/07/17 07:23:01;;;;;;;13.22;7.15;;;;;;;36.11;34.61;101078.55;1747730;82;21583;-59
2022/07/17 07:25:30;;;;;;;12.93;4.97;;;;;;;36.37;34.56;101079.45;1747846;82;21069;-59
2022/07/17 07:27:59;;;;;;;6.08;1.95;;;;;;;36.57;34.27;101077.92;1747782;82;21066;-58
2022/07/17 07:30:28;;;;;;;2.22;1.50;;;;;;;36.65;33.34;101076.28;1747900;82;21153;-60
2022/07/17 07:32:56;;;;;;;2.80;1.67;;;;;;;36.41;32.42;101069.75;1747901;82;21151;-58
2022/07/17 07:35:25;;;;;;;2.70;1.92;;;;;;;36.31;31.98;101074.34;1747644;82;21054;-59
2022/07/17 07:37:54;;;;;;;3.25;1.60;;;;;;;36.32;32.27;101077.94;1747774;82;21582;-59
2022/07/17 07:40:23;;;;;;;16.17;8.48;;;;;;;36.47;32.52;101081.18;1747781;82;21077;-59
2022/07/17 07:42:51;;;;;;;3.77;1.90;;;;;;;36.63;32.22;101074.30;1747764;82;21105;-59
2022/07/17 07:45:20;;;;;;;3.90;1.92;;;;;;;36.89;32.75;101077.35;1747855;82;21041;-59
2022/07/17 07:47:51;;;;;;;1.95;1.60;;;;;;;37.10;32.47;101077.98;1747705;82;21045;-59
2022/07/17 07:50:21;;;;;;;2.15;1.60;;;;;;;37.02;32.03;101076.89;1747776;82;21136;-59
2022/07/17 07:52:50;;;;;;;2.85;1.47;;;;;;;37.09;31.90;101081.77;1747734;82;21532;-59
2022/07/17 07:55:21;;;;;;;2.83;1.72;;;;;;;37.09;31.87;101074.91;1747744;82;21560;-59
2022/07/17 07:57:50;;;;;;;9.00;5.28;;;;;;;37.09;31.75;101074.91;1747764;82;21089;-59
2022/07/17 08:00:19;;;;;;;4.85;1.92;;;;;;;37.23;31.70;101066.87;1747636;82;21078;-59
2022/07/17 08:02:47;;;;;;;4.80;1.90;;;;;;;37.28;30.73;101071.69;1747767;82;21045;-59
2022/07/17 08:05:16;;;;;;;3.52;1.32;;;;;;;37.23;30.86;101068.78;1747860;82;21074;-58
2022/07/17 08:07:45;;;;;;;2.20;1.62;;;;;;;37.28;30.42;101071.14;1747791;82;21081;-59
2022/07/17 08:10:13;;;;;;;1.95;1.30;;;;;;;37.24;30.19;101071.30;1747843;82;21062;-59
2022/07/17 08:12:42;;;;;;;2.52;1.40;;;;;;;37.24;29.42;101074.05;1747794;82;21097;-60
2022/07/17 08:15:11;;;;;;;3.47;1.55;;;;;;;37.16;29.20;101070.22;1747713;82;21204;-59
2022/07/17 08:17:40;;;;;;;7.15;1.65;;;;;;;37.24;29.65;101071.30;1747956;82;21231;-59
2022/07/17 08:20:09;;;;;;;1.95;1.22;;;;;;;37.20;29.40;101067.31;1749502;81;21175;-59
2022/07/17 08:22:38;;;;;;;3.00;2.33;;;;;;;37.39;29.43;101064.05;1753966;82;21172;-59
2022/07/17 08:25:07;;;;;;;3.98;2.20;;;;;;;37.43;29.18;101061.14;1753886;82;21061;-59
2022/07/17 08:27:38;;;;;;;4.37;1.92;;;;;;;37.52;29.58;101057.55;1753750;82;21563;-59
2022/07/17 08:30:08;;;;;;;1.90;1.50;;;;;;;37.52;29.58;101054.80;1753858;82;21245;-60
2022/07/17 08:32:38;;;;;;;3.42;1.72;;;;;;;37.60;28.93;101061.33;1753961;82;21077;-59
2022/07/17 08:35:07;;;;;;;5.78;3.47;;;;;;;37.28;28.20;101064.28;1753867;82;21578;-59
2022/07/17 08:37:47;;;;;;;15.72;6.92;;;;;;;37.24;28.82;101058.95;1753980;82;21116;-59
2022/07/17 08:40:21;;;;;;;3.00;1.45;;;;;;;37.55;29.36;101057.06;1753962;82;21042;-59
2022/07/17 08:42:51;;;;;;;1.67;1.20;;;;;;;37.66;28.96;101056.85;1753842;82;21229;-59
2022/07/17 08:45:20;;;;;;;6.67;2.72;;;;;;;37.49;28.88;101056.63;1753856;81;21500;-59
2022/07/17 08:47:50;;;;;;;6.05;3.85;;;;;;;37.66;29.40;101054.97;1753917;82;21052;-59
2022/07/17 08:50:22;;;;;;;4.47;1.57;;;;;;;38.10;29.44;101048.43;1753760;82;21460;-60
2022/07/17 08:52:51;;;;;;;8.53;2.05;;;;;;;38.49;29.14;101048.84;1754094;82;21627;-59
2022/07/17 08:55:20;;;;;;;6.03;2.20;;;;;;;38.73;28.95;101049.16;1753836;82;21152;-59
2022/07/17 08:57:48;;;;;;;2.80;1.40;;;;;;;38.76;28.77;101051.44;1753841;82;21037;-60
2022/07/17 09:00:20;;;;;;;5.03;2.20;;;;;;;38.76;28.34;101049.23;1753854;82;21567;-59
2022/07/17 09:02:58;;;;;;;4.90;2.02;;;;;;;38.75;28.11;101047.03;1753917;82;21547;-59
2022/07/17 09:05:29;;;;;;;2.98;1.70;;;;;;;38.80;28.17;101051.25;1753829;82;21073;-59
2022/07/17 09:07:58;;;;;;;8.48;2.77;;;;;;;38.78;27.97;101049.83;1753942;82;21147;-60
2022/07/17 09:10:45;;;;;;;4.30;1.62;;;;;;;38.39;27.65;101055.77;1753925;82;21073;-60
2022/07/17 09:13:28;;;;;;;4.50;2.30;;;;;;;38.27;27.98;101054.91;1753839;82;21542;-60
2022/07/17 09:16:12;;;;;;;1.95;1.52;;;;;;;38.32;27.86;101049.53;1753319;82;21144;-60
2022/07/17 09:18:49;;;;;;;2.67;1.60;;;;;;;38.22;27.58;101054.80;1753574;82;21089;-60
2022/07/17 09:21:25;;;;;;;5.50;3.25;;;;;;;38.03;27.90;101054.84;1751157;81;21105;-60
2022/07/17 09:24:06;;;;;;;11.38;5.55;;;;;;;38.05;28.51;101049.95;1747828;82;21132;-60
2022/07/17 09:26:37;;;;;;;2.45;1.30;;;;;;;38.02;28.40;101051.78;1747944;82;21516;-59
2022/07/17 09:29:06;;;;;;;17.27;9.88;;;;;;;38.04;28.18;101050.18;1748189;82;21136;-59
2022/07/17 09:31:35;;;;;;;14.90;5.30;;;;;;;38.08;28.35;101050.55;1747845;82;21594;-59
2022/07/17 09:34:03;;;;;;;3.00;1.55;;;;;;;38.36;28.50;101056.23;1747734;82;21050;-60
2022/07/17 09:36:32;;;;;;;2.85;1.52;;;;;;;38.50;28.15;101059.61;1747811;82;21081;-59
2022/07/17 09:39:00;;;;;;;4.22;2.67;;;;;;;38.52;27.84;101049.20;1747920;82;21061;-59
2022/07/17 09:41:33;;;;;;;1.85;1.22;;;;;;;38.54;27.76;101050.34;1747830;81;21065;-60
2022/07/17 09:44:02;;;;;;;29.18;14.80;;;;;;;38.51;27.37;101048.06;1747540;82;21073;-60
2022/07/17 09:46:33;;;;;;;4.12;1.22;;;;;;;38.50;27.90;101049.15;1748022;82;21532;-59
2022/07/17 09:49:04;;;;;;;3.83;2.10;;;;;;;38.72;27.78;101053.00;1748091;82;21045;-59
2022/07/17 09:51:37;;;;;;;6.67;1.32;;;;;;;38.60;27.93;101052.98;1747813;82;21046;-59
2022/07/17 09:54:08;;;;;;;7.58;1.77;;;;;;;38.38;27.89;101047.23;1747984;82;21049;-59
2022/07/17 09:56:38;;;;;;;1.37;1.27;;;;;;;38.12;27.90;101048.48;1748166;82;21505;-59
2022/07/17 09:59:12;;;;;;;2.87;1.40;;;;;;;38.13;27.84;101045.22;1747671;82;21528;-59
2022/07/17 10:01:44;;;;;;;3.67;1.85;;;;;;;37.78;27.82;101046.75;1747822;82;21073;-60
2022/07/17 10:04:13;;;;;;;2.40;1.20;;;;;;;37.48;28.20;101041.23;1747964;82;21172;-59
2022/07/17 10:06:42;;;;;;;3.05;1.60;;;;;;;37.53;28.34;101033.11;1747914;82;21066;-59
2022/07/17 10:09:11;;;;;;;2.55;1.52;;;;;;;37.29;28.26;101032.99;1747810;82;21577;-59
2022/07/17 10:11:41;;;;;;;14.68;6.08;;;;;;;37.00;28.36;101029.11;1747842;82;21069;-59
2022/07/17 10:14:12;;;;;;;9.85;3.55;;;;;;;36.87;28.56;101031.47;1747834;82;21049;-59
2022/07/17 10:16:41;;;;;;;3.02;1.55;;;;;;;36.98;29.54;101027.64;1746694;82;21606;-58
2022/07/17 10:19:21;;;;;;;6.87;2.25;;;;;;;37.10;29.21;101027.20;1747893;82;21066;-58
2022/07/17 10:22:01;;;;;;;7.53;2.37;;;;;;;37.08;29.97;101016.98;1749884;82;21108;-59
2022/07/17 10:24:31;;;;;;;6.08;1.60;;;;;;;37.15;30.07;101019.66;1753899;82;21097;-59
2022/07/17 10:27:00;;;;;;;4.10;2.30;;;;;;;37.09;29.92;101022.25;1753914;82;21068;-60
2022/07/17 10:29:35;;;;;;;3.37;1.82;;;;;;;37.02;29.79;101025.60;1753953;82;21077;-59
2022/07/17 10:32:10;;;;;;;4.45;3.05;;;;;;;37.07;29.79;101024.90;1753463;82;21570;-59
2022/07/17 10:34:41;;;;;;;4.90;1.90;;;;;;;37.01;29.87;101024.45;1753773;82;22280;-60
2022/07/17 10:37:21;;;;;;;2.77;1.40;;;;;;;36.89;30.05;101025.22;1754037;81;21081;-59
2022/07/17 10:39:56;;;;;;;2.58;2.08;;;;;;;36.99;29.82;101027.97;1753921;82;21353;-60
2022/07/17 10:42:44;;;;;;;1.90;1.37;;;;;;;36.73;29.91;101026.35;1753972;82;21132;-59
2022/07/17 10:45:19;;;;;;;2.65;1.37;;;;;;;36.75;30.07;101026.42;1754015;82;21102;-59
2022/07/17 10:47:51;;;;;;;3.35;1.80;;;;;;;36.27;29.75;101027.05;1753978;82;21073;-59
2022/07/17 10:50:26;;;;;;;3.08;2.02;;;;;;;36.08;30.01;101024.20;1754072;82;21033;-59
2022/07/17 10:53:09;;;;;;;3.83;1.70;;;;;;;36.00;30.16;101024.46;1753500;82;21655;-59
2022/07/17 10:55:41;;;;;;;3.08;1.50;;;;;;;35.71;30.35;101025.41;1754008;82;21148;-59
2022/07/17 10:58:24;;;;;;;3.72;1.52;;;;;;;35.47;30.74;101011.05;1754153;82;21144;-59
2022/07/17 11:01:04;;;;;;;3.55;1.80;;;;;;;35.11;30.76;101017.93;1753987;82;21065;-59
2022/07/17 11:03:48;;;;;;;3.10;1.10;;;;;;;34.88;31.13;101012.93;1753884;82;21073;-59
2022/07/17 11:06:22;;;;;;;1.75;1.10;;;;;;;34.63;31.06;101012.22;1754114;81;21228;-59
2022/07/17 11:08:54;;;;;;;3.85;1.60;;;;;;;34.39;31.46;101006.35;1754002;82;21109;-59
2022/07/17 11:11:26;;;;;;;3.77;1.37;;;;;;;34.25;31.54;101005.20;1752699;82;21076;-59
2022/07/17 11:13:56;;;;;;;1.40;1.30;;;;;;;34.09;31.78;100994.15;1750592;82;21449;-61
2022/07/17 11:16:31;;;;;;;3.67;1.98;;;;;;;33.95;31.65;100998.74;1752867;82;21128;-59
2022/07/17 11:19:00;;;;;;;5.85;1.98;;;;;;;33.80;32.00;100994.30;1751465;82;21143;-59
2022/07/17 11:21:31;;;;;;;3.25;1.80;;;;;;;33.78;32.47;100991.48;1753891;82;21567;-60
2022/07/17 11:24:01;;;;;;;3.35;1.70;;;;;;;33.56;32.43;100983.94;1747866;81;21101;-59
2022/07/17 11:26:31;;;;;;;1.67;1.35;;;;;;;33.41;32.48;100991.77;1747714;82;21532;-60
2022/07/17 11:29:01;;;;;;;5.55;1.20;;;;;;;33.32;32.57;100984.80;1747822;82;21112;-59
2022/07/17 11:31:35;;;;;;;4.08;1.35;;;;;;;33.20;32.31;100986.42;1747341;82;21128;-59
2022/07/17 11:34:11;;;;;;;4.28;1.70;;;;;;;33.16;33.04;100990.61;1745271;82;21144;-59
2022/07/17 11:36:45;;;;;;;5.33;1.42;;;;;;;33.16;33.04;100990.61;1747792;82;21156;-60